Terminal Aerodrome Forecast
Issued by NWS Riverton, WY

Home | Current Version | Previous Version | Text Only | Print | Product List | Glossary On
Versions: 1 2 3 4 5 6 7 8 9 10 11 12
062
FTUS45 KRIW 221126
TAFRIW
TAF
KRIW 221126Z 2212/2312 24009KT P6SM BKN200
     FM221600 25015G25KT P6SM BKN200
     FM222000 28020G30KT P6SM FEW090 BKN200
     FM230300 30014G20KT P6SM FEW100 BKN200
     FM231100 35011KT P6SM FEW070 BKN200=

USA.gov is the U.S. government's official web portal to all federal, state and local government web resources and services.